createdAt,value
2023-05-23T00:00:14.476Z,2.30
2023-05-23T00:02:41.260Z,2.80
2023-05-23T00:05:08.123Z,2.90
2023-05-23T00:07:34.946Z,3.00
2023-05-23T00:10:01.706Z,3.35
2023-05-23T00:12:29.561Z,3.28
2023-05-23T00:14:56.202Z,2.83
2023-05-23T00:17:25.533Z,3.08
2023-05-23T00:19:52.963Z,2.88
2023-05-23T00:22:19.755Z,3.05
2023-05-23T00:24:46.749Z,2.47
2023-05-23T00:27:13.553Z,2.80
2023-05-23T00:29:40.215Z,2.65
2023-05-23T00:32:07.015Z,2.60
2023-05-23T00:34:34.613Z,2.95
2023-05-23T00:37:02.392Z,2.70
2023-05-23T00:39:29.497Z,2.80
2023-05-23T00:41:57.159Z,3.03
2023-05-23T00:44:23.995Z,2.60
2023-05-23T00:46:56.737Z,3.00
2023-05-23T00:49:24.195Z,2.75
2023-05-23T00:54:23.985Z,2.92
2023-05-23T00:56:50.731Z,2.40
2023-05-23T00:59:17.694Z,3.30
2023-05-23T01:01:46.957Z,2.83
2023-05-23T01:04:16.865Z,2.65
2023-05-23T01:06:47.278Z,3.10
2023-05-23T01:09:16.310Z,2.97
2023-05-23T01:12:02.934Z,2.63
2023-05-23T01:14:58.481Z,3.13
2023-05-23T01:17:34.348Z,2.92
2023-05-23T01:20:01.433Z,2.97
2023-05-23T01:22:28.070Z,2.95
2023-05-23T01:25:12.191Z,3.20
2023-05-23T01:27:51.364Z,3.28
2023-05-23T01:30:22.086Z,3.30
2023-05-23T01:32:52.367Z,3.03
2023-05-23T01:35:24.808Z,2.85
2023-05-23T01:37:51.454Z,3.45
2023-05-23T01:40:18.094Z,3.17
2023-05-23T01:42:44.854Z,3.22
2023-05-23T01:45:12.528Z,3.00
2023-05-23T01:47:41.417Z,3.42
2023-05-23T01:50:09.346Z,3.38
2023-05-23T01:52:36.189Z,3.20
2023-05-23T01:55:09.711Z,3.50
2023-05-23T01:57:38.165Z,3.33
2023-05-23T02:00:06.914Z,3.70
2023-05-23T02:02:34.402Z,3.30
2023-05-23T02:05:01.171Z,3.70
2023-05-23T02:07:28.096Z,3.63
2023-05-23T02:09:55.367Z,3.53
2023-05-23T02:12:22.062Z,3.38
2023-05-23T02:14:50.091Z,3.25
2023-05-23T02:17:17.107Z,3.53
2023-05-23T02:19:43.903Z,3.53
2023-05-23T02:22:10.578Z,3.55
2023-05-23T02:24:37.249Z,3.72
2023-05-23T02:27:04.124Z,3.20
2023-05-23T02:29:30.805Z,3.70
2023-05-23T02:31:57.523Z,3.65
2023-05-23T02:34:24.251Z,3.58
2023-05-23T02:36:51.635Z,3.70
2023-05-23T02:41:44.936Z,3.60
2023-05-23T02:44:11.680Z,3.58
2023-05-23T02:46:38.375Z,4.20
2023-05-23T02:49:05.128Z,3.50
2023-05-23T02:51:32.448Z,3.50
2023-05-23T02:53:59.088Z,3.72
2023-05-23T02:56:27.029Z,3.47
2023-05-23T02:58:53.775Z,3.70
2023-05-23T03:01:20.794Z,4.10
2023-05-23T03:03:47.602Z,4.35
2023-05-23T03:06:14.743Z,4.03
2023-05-23T03:08:42.037Z,3.92
2023-05-23T03:11:09.154Z,4.40
2023-05-23T03:13:36.102Z,3.78
2023-05-23T03:16:02.866Z,4.10
2023-05-23T03:18:29.578Z,4.25
2023-05-23T03:20:56.301Z,4.38
2023-05-23T03:23:22.902Z,4.30
2023-05-23T03:25:49.571Z,4.10
2023-05-23T03:28:16.209Z,3.88
2023-05-23T03:30:43.015Z,3.50
2023-05-23T03:33:09.785Z,4.35
2023-05-23T03:35:36.368Z,4.10
2023-05-23T03:38:03.681Z,4.32
2023-05-23T03:43:07.018Z,4.30
2023-05-23T03:45:34.075Z,3.90
2023-05-23T03:48:01.172Z,3.95
2023-05-23T03:50:28.144Z,4.22
2023-05-23T03:52:55.005Z,4.20
2023-05-23T03:55:22.703Z,4.53
2023-05-23T03:57:50.735Z,4.18
2023-05-23T04:00:18.694Z,4.03
2023-05-23T04:02:46.614Z,4.20
2023-05-23T04:05:13.796Z,5.18
2023-05-23T04:07:41.900Z,5.18
2023-05-23T04:10:09.466Z,5.10
2023-05-23T04:12:36.799Z,4.45
2023-05-23T04:15:04.145Z,4.63
2023-05-23T04:19:58.731Z,4.53
2023-05-23T04:22:25.512Z,4.78
2023-05-23T04:24:52.146Z,4.65
2023-05-23T04:27:18.801Z,5.07
2023-05-23T04:29:46.894Z,4.82
2023-05-23T04:32:14.848Z,4.82
2023-05-23T04:34:41.503Z,5.55
2023-05-23T04:37:09.786Z,4.75
2023-05-23T04:39:36.595Z,4.90
2023-05-23T04:42:03.333Z,5.78
2023-05-23T04:44:30.407Z,5.07
2023-05-23T04:46:57.384Z,5.20
2023-05-23T04:49:24.170Z,5.10
2023-05-23T04:51:51.338Z,4.78
2023-05-23T04:54:18.008Z,5.20
2023-05-23T04:56:45.161Z,5.95
2023-05-23T04:59:13.297Z,5.07
2023-05-23T05:01:41.155Z,5.55
2023-05-23T05:04:08.156Z,4.88
2023-05-23T05:06:34.904Z,5.10
2023-05-23T05:09:01.560Z,5.10
2023-05-23T05:11:28.701Z,4.05
2023-05-23T05:13:55.495Z,4.80
2023-05-23T05:16:22.532Z,4.68
2023-05-23T05:18:49.222Z,5.10
2023-05-23T05:21:15.849Z,4.95
2023-05-23T05:23:43.675Z,4.50
2023-05-23T05:26:10.543Z,4.07
2023-05-23T05:28:38.315Z,3.95
2023-05-23T05:31:05.674Z,3.78
2023-05-23T05:36:03.980Z,3.35
2023-05-23T05:38:30.780Z,4.20
2023-05-23T05:40:57.556Z,3.88
2023-05-23T05:43:26.239Z,3.53
2023-05-23T05:45:52.981Z,3.50
2023-05-23T05:48:19.640Z,3.55
2023-05-23T05:50:46.983Z,3.20
2023-05-23T05:55:41.088Z,3.17
2023-05-23T05:58:07.922Z,2.90
2023-05-23T06:00:42.068Z,6.38
2023-05-23T06:03:09.254Z,3.10
2023-05-23T06:05:37.649Z,2.55
2023-05-23T06:08:05.005Z,2.92
2023-05-23T06:12:59.846Z,3.05
2023-05-23T06:15:26.760Z,5.78
2023-05-23T06:17:53.627Z,4.38
2023-05-23T06:20:20.397Z,3.20
2023-05-23T06:22:47.264Z,2.70
2023-05-23T06:25:14.018Z,2.50
2023-05-23T06:27:40.772Z,3.45
2023-05-23T06:30:08.245Z,3.00
2023-05-23T06:32:34.956Z,2.60
2023-05-23T06:35:01.591Z,2.40
2023-05-23T06:37:28.162Z,2.33
2023-05-23T06:39:54.890Z,2.70
2023-05-23T06:42:21.596Z,2.58
2023-05-23T06:44:48.254Z,3.65
2023-05-23T06:47:14.940Z,2.80
2023-05-23T06:49:41.644Z,2.60
2023-05-23T06:52:08.310Z,2.50
2023-05-23T06:54:35.029Z,2.60
2023-05-23T06:57:01.698Z,2.60
2023-05-23T06:59:28.382Z,2.50
2023-05-23T07:01:55.013Z,2.50
2023-05-23T07:04:21.638Z,2.80
2023-05-23T07:06:48.688Z,2.83
2023-05-23T07:09:15.448Z,2.60
2023-05-23T07:11:42.084Z,2.63
2023-05-23T07:14:08.916Z,2.88
2023-05-23T07:16:35.576Z,2.85
2023-05-23T07:19:03.539Z,3.22
2023-05-23T07:21:30.349Z,2.80
2023-05-23T07:23:57.022Z,3.00
2023-05-23T07:26:23.735Z,3.00
2023-05-23T07:28:51.366Z,2.60
2023-05-23T07:31:18.401Z,3.25
2023-05-23T07:36:11.953Z,2.85
2023-05-23T07:38:38.601Z,3.67
2023-05-23T07:41:11.575Z,3.88
2023-05-23T07:43:39.246Z,4.57
2023-05-23T07:48:32.564Z,3.45
2023-05-23T07:50:59.367Z,3.30
2023-05-23T07:53:26.258Z,4.15
2023-05-23T07:55:53.055Z,3.80
2023-05-23T07:58:19.861Z,3.80
2023-05-23T08:00:46.624Z,3.60
2023-05-23T08:03:13.551Z,3.72
2023-05-23T08:05:40.386Z,3.33
2023-05-23T08:08:07.109Z,3.00
2023-05-23T08:10:33.923Z,3.33
2023-05-23T08:13:01.099Z,3.90
2023-05-23T08:17:57.412Z,2.95
2023-05-23T08:20:30.953Z,2.83
2023-05-23T08:23:01.653Z,3.20
2023-05-23T08:25:32.477Z,2.85
2023-05-23T08:28:00.573Z,3.25
2023-05-23T08:30:28.843Z,2.67
2023-05-23T08:32:56.733Z,2.70
2023-05-23T08:35:23.740Z,3.05
2023-05-23T08:37:51.087Z,3.00
2023-05-23T08:40:22.833Z,2.95
2023-05-23T08:42:50.763Z,2.90
2023-05-23T08:45:18.611Z,3.13
2023-05-23T08:47:46.806Z,2.85
2023-05-23T08:50:16.829Z,3.25
2023-05-23T08:52:54.042Z,2.88
2023-05-23T08:55:21.466Z,3.08
2023-05-23T08:57:48.362Z,2.90
2023-05-23T09:00:16.745Z,2.92
2023-05-23T09:02:44.335Z,3.10
2023-05-23T09:05:11.600Z,2.90
2023-05-23T09:07:39.207Z,2.85
2023-05-23T09:10:08.632Z,3.00
2023-05-23T09:12:38.603Z,2.42
2023-05-23T09:15:06.705Z,2.90
2023-05-23T09:17:33.838Z,3.00
2023-05-23T09:20:01.058Z,2.60
2023-05-23T09:22:28.783Z,3.10
2023-05-23T09:24:56.424Z,3.38
2023-05-23T09:27:23.808Z,2.90
2023-05-23T09:29:51.059Z,2.55
2023-05-23T09:32:19.406Z,2.72
2023-05-23T09:35:00.394Z,2.65
2023-05-23T09:37:34.605Z,2.67
2023-05-23T09:40:06.641Z,2.60
2023-05-23T09:42:34.266Z,2.85
2023-05-23T09:45:03.989Z,2.55
2023-05-23T09:47:31.838Z,3.00
2023-05-23T09:52:26.196Z,3.20
2023-05-23T09:54:52.965Z,2.55
2023-05-23T09:57:22.225Z,2.95
2023-05-23T10:00:00.426Z,2.97
2023-05-23T10:03:10.822Z,2.88
2023-05-23T10:05:48.457Z,2.70
2023-05-23T10:08:23.964Z,2.90
2023-05-23T10:10:56.683Z,2.88
2023-05-23T10:13:27.846Z,2.65
2023-05-23T10:16:08.205Z,2.80
2023-05-23T10:18:43.291Z,2.67
2023-05-23T10:21:12.504Z,2.72
2023-05-23T10:23:39.565Z,2.60
2023-05-23T10:36:10.563Z,2.85
2023-05-23T10:38:42.600Z,2.75
2023-05-23T10:41:21.976Z,3.00
2023-05-23T10:44:07.270Z,2.88
2023-05-23T10:46:55.187Z,3.15
2023-05-23T10:49:22.826Z,2.83
2023-05-23T10:51:52.164Z,2.78
2023-05-23T10:54:23.180Z,2.90
2023-05-23T10:57:05.886Z,2.90
2023-05-23T10:59:32.663Z,2.67
2023-05-23T11:02:01.593Z,2.97
2023-05-23T11:04:29.548Z,2.70
2023-05-23T11:06:57.131Z,2.95
2023-05-23T11:09:24.435Z,2.85
2023-05-23T11:11:54.063Z,2.80
2023-05-23T11:14:31.320Z,2.92
2023-05-23T11:16:58.862Z,2.97
2023-05-23T11:19:29.956Z,2.92
2023-05-23T11:22:02.194Z,2.70
2023-05-23T11:24:48.213Z,2.70
2023-05-23T11:27:16.185Z,2.65
2023-05-23T11:29:43.517Z,2.90
2023-05-23T11:32:17.337Z,2.70
2023-05-23T11:34:44.553Z,2.92
2023-05-23T11:37:12.198Z,2.53
2023-05-23T11:39:38.918Z,2.55
2023-05-23T11:42:05.800Z,2.50
2023-05-23T11:44:32.495Z,2.70
2023-05-23T11:47:03.772Z,2.70
2023-05-23T11:49:36.544Z,2.80
2023-05-23T11:52:03.732Z,2.72
2023-05-23T11:54:31.122Z,2.70
2023-05-23T11:56:58.058Z,2.72
2023-05-23T11:59:26.462Z,2.90
2023-05-23T12:01:53.808Z,2.53
2023-05-23T12:04:21.004Z,2.92
2023-05-23T12:06:49.154Z,2.63
2023-05-23T12:09:16.781Z,2.60
2023-05-23T12:11:44.384Z,2.80
2023-05-23T12:14:16.574Z,2.88
2023-05-23T12:16:47.502Z,2.40
2023-05-23T12:19:16.633Z,2.60
2023-05-23T12:21:49.064Z,3.10
2023-05-23T12:24:23.738Z,2.28
2023-05-23T12:26:51.604Z,2.78
2023-05-23T12:29:28.283Z,2.50
2023-05-23T12:31:55.252Z,2.33
2023-05-23T12:34:22.026Z,2.90
2023-05-23T12:36:55.137Z,2.90
2023-05-23T12:39:30.894Z,3.03
2023-05-23T12:42:08.986Z,2.53
2023-05-23T12:44:36.556Z,2.75
2023-05-23T12:47:04.130Z,2.70
2023-05-23T12:49:30.978Z,2.60
2023-05-23T12:51:57.944Z,2.60
2023-05-23T12:54:24.663Z,2.90
2023-05-23T12:56:51.269Z,2.45
2023-05-23T12:59:18.247Z,2.80
2023-05-23T13:01:44.961Z,2.60
2023-05-23T13:04:11.817Z,2.80
2023-05-23T13:06:38.574Z,2.83
2023-05-23T13:09:05.650Z,2.53
2023-05-23T13:16:26.228Z,3.10
2023-05-23T13:18:53.153Z,2.83
2023-05-23T13:21:20.036Z,3.00
2023-05-23T13:23:46.923Z,3.15
2023-05-23T13:26:14.711Z,2.70
2023-05-23T13:28:41.537Z,2.90
2023-05-23T13:31:08.306Z,3.03
2023-05-23T13:33:35.013Z,2.78
2023-05-23T13:36:01.733Z,2.80
2023-05-23T13:38:30.947Z,2.63
2023-05-23T13:40:57.766Z,2.83
2023-05-23T13:43:24.490Z,2.78
2023-05-23T13:45:51.246Z,2.67
2023-05-23T13:48:17.984Z,2.63
2023-05-23T13:50:45.498Z,2.88
2023-05-23T13:53:16.726Z,2.80
2023-05-23T13:55:45.345Z,2.70
2023-05-23T13:58:12.573Z,2.83
2023-05-23T14:03:07.210Z,2.83
2023-05-23T14:05:34.155Z,2.78
2023-05-23T14:08:01.016Z,3.10
2023-05-23T14:10:29.038Z,3.03
2023-05-23T14:12:56.044Z,2.95
2023-05-23T14:15:23.114Z,2.95
2023-05-23T14:20:23.099Z,3.10
2023-05-23T14:22:51.160Z,2.90
2023-05-23T14:25:18.672Z,3.10
2023-05-23T14:27:45.480Z,3.30
2023-05-23T14:30:12.510Z,3.05
2023-05-23T14:32:39.386Z,3.10
2023-05-23T14:35:07.230Z,2.67
2023-05-23T14:37:33.978Z,3.10
2023-05-23T14:40:00.829Z,2.80
2023-05-23T14:42:27.643Z,3.45
2023-05-23T14:44:54.515Z,2.78
2023-05-23T14:47:21.856Z,3.00
2023-05-23T14:49:48.532Z,2.80
2023-05-23T14:52:15.285Z,2.80
2023-05-23T14:54:43.563Z,3.15
2023-05-23T14:57:10.643Z,3.20
2023-05-23T15:02:04.582Z,3.08
2023-05-23T15:04:31.974Z,3.10
2023-05-23T15:06:58.786Z,2.97
2023-05-23T15:09:25.875Z,3.20
2023-05-23T15:11:52.662Z,3.30
2023-05-23T15:14:19.470Z,3.10
2023-05-23T15:16:46.701Z,3.10
2023-05-23T15:21:46.348Z,3.30
2023-05-23T15:24:17.111Z,2.90
2023-05-23T15:26:43.812Z,3.17
2023-05-23T15:29:10.497Z,3.00
2023-05-23T15:31:37.256Z,3.00
2023-05-23T15:34:03.957Z,3.00
2023-05-23T15:36:30.784Z,3.05
2023-05-23T15:38:57.485Z,3.28
2023-05-23T15:41:24.253Z,3.08
2023-05-23T15:43:51.045Z,3.40
2023-05-23T15:46:17.709Z,3.47
2023-05-23T15:48:44.478Z,3.20
2023-05-23T15:51:11.203Z,3.38
2023-05-23T15:53:58.048Z,3.08
2023-05-23T15:56:24.581Z,3.40
2023-05-23T15:58:51.295Z,3.28
2023-05-23T16:01:18.215Z,2.90
2023-05-23T16:03:44.951Z,3.08
2023-05-23T16:06:11.734Z,2.70
2023-05-23T16:08:38.401Z,3.17
2023-05-23T16:11:05.133Z,2.83
2023-05-23T16:13:31.774Z,3.28
2023-05-23T16:15:58.820Z,3.20
2023-05-23T16:18:25.671Z,3.20
2023-05-23T16:20:52.638Z,3.08
2023-05-23T16:23:19.397Z,2.80
2023-05-23T16:25:46.079Z,2.88
2023-05-23T16:28:12.746Z,2.70
2023-05-23T16:30:39.447Z,2.97
2023-05-23T16:33:06.351Z,3.13
2023-05-23T16:35:33.411Z,3.00
2023-05-23T16:38:00.150Z,3.38
2023-05-23T16:40:27.051Z,2.75
2023-05-23T16:42:53.687Z,3.13
2023-05-23T16:45:20.629Z,2.85
2023-05-23T16:47:47.361Z,3.20
2023-05-23T16:50:14.078Z,3.03
2023-05-23T16:52:41.041Z,3.20
2023-05-23T16:55:08.005Z,2.92
2023-05-23T16:57:34.639Z,2.85
2023-05-23T17:00:01.378Z,3.03
2023-05-23T17:02:28.095Z,3.10
2023-05-23T17:04:55.838Z,3.47
2023-05-23T17:07:22.553Z,2.83
2023-05-23T17:09:49.207Z,3.20
2023-05-23T17:12:15.853Z,2.83
2023-05-23T17:14:42.599Z,3.47
2023-05-23T17:17:09.264Z,3.45
2023-05-23T17:19:36.249Z,3.40
2023-05-23T17:22:06.114Z,2.85
2023-05-23T17:24:34.223Z,3.10
2023-05-23T17:27:00.956Z,2.88
2023-05-23T17:29:27.750Z,2.75
2023-05-23T17:31:54.506Z,3.17
2023-05-23T17:34:21.443Z,3.03
2023-05-23T17:36:48.774Z,2.88
2023-05-23T17:39:15.544Z,2.80
2023-05-23T17:41:42.731Z,3.13
2023-05-23T17:46:35.972Z,3.15
2023-05-23T17:49:02.630Z,3.33
2023-05-23T17:51:29.329Z,3.08
2023-05-23T17:53:56.009Z,2.92
2023-05-23T17:56:24.975Z,3.10
2023-05-23T17:58:51.786Z,3.10
2023-05-23T18:01:18.558Z,3.17
2023-05-23T18:03:45.427Z,3.33
2023-05-23T18:06:12.190Z,3.03
2023-05-23T18:08:40.984Z,3.90
2023-05-23T18:11:07.676Z,2.83
2023-05-23T18:13:34.273Z,2.85
2023-05-23T18:16:00.952Z,3.13
2023-05-23T18:18:27.707Z,2.72
2023-05-23T18:20:54.423Z,2.85
2023-05-23T18:23:21.955Z,2.95
2023-05-23T18:25:48.725Z,3.05
2023-05-23T18:28:15.542Z,3.20
2023-05-23T18:30:42.290Z,2.60
2023-05-23T18:33:09.288Z,2.92
2023-05-23T18:35:36.103Z,3.03
2023-05-23T18:38:02.838Z,2.95
2023-05-23T18:40:29.533Z,3.95
2023-05-23T18:42:56.324Z,4.10
2023-05-23T18:45:23.059Z,4.15
2023-05-23T18:47:50.148Z,3.70
2023-05-23T18:52:43.578Z,3.30
2023-05-23T18:55:11.309Z,3.42
2023-05-23T18:57:38.200Z,3.33
2023-05-23T19:00:05.374Z,3.63
2023-05-23T19:02:32.308Z,3.42
2023-05-23T19:04:59.032Z,3.42
2023-05-23T19:07:25.791Z,3.15
2023-05-23T19:09:52.466Z,3.10
2023-05-23T19:12:19.558Z,3.47
2023-05-23T19:14:46.605Z,3.00
2023-05-23T19:17:13.290Z,3.17
2023-05-23T19:19:39.992Z,3.28
2023-05-23T19:22:07.110Z,3.60
2023-05-23T19:24:33.938Z,3.35
2023-05-23T19:27:02.123Z,3.20
2023-05-23T19:29:28.824Z,3.60
2023-05-23T19:31:55.620Z,3.50
2023-05-23T19:34:22.579Z,3.92
2023-05-23T19:36:49.286Z,4.47
2023-05-23T19:39:16.122Z,3.72
2023-05-23T19:41:42.844Z,4.00
2023-05-23T19:44:09.828Z,4.00
2023-05-23T19:46:36.574Z,3.72
2023-05-23T19:49:03.594Z,3.72
2023-05-23T19:51:30.309Z,3.50
2023-05-23T19:53:57.031Z,4.25
2023-05-23T19:56:25.961Z,3.60
2023-05-23T19:58:52.691Z,3.47
2023-05-23T20:01:19.697Z,3.20
2023-05-23T20:03:46.520Z,3.63
2023-05-23T20:06:13.597Z,3.28
2023-05-23T20:08:40.451Z,3.40
2023-05-23T20:11:07.635Z,3.38
2023-05-23T20:13:34.419Z,3.53
2023-05-23T20:16:01.224Z,3.60
2023-05-23T20:18:27.921Z,3.78
2023-05-23T20:20:54.749Z,3.50
2023-05-23T20:23:21.773Z,3.63
2023-05-23T20:25:48.534Z,3.70
2023-05-23T20:28:15.245Z,3.80
2023-05-23T20:30:42.122Z,3.70
2023-05-23T20:33:09.276Z,3.78
2023-05-23T20:35:36.675Z,3.55
2023-05-23T20:40:33.659Z,3.67
2023-05-23T20:43:04.773Z,3.50
2023-05-23T20:45:32.915Z,3.63
2023-05-23T20:48:00.086Z,3.65
2023-05-23T20:50:26.900Z,3.40
2023-05-23T20:52:54.064Z,3.95
2023-05-23T20:55:22.397Z,3.72
2023-05-23T20:57:49.123Z,3.92
2023-05-23T21:00:16.228Z,3.97
2023-05-23T21:02:43.641Z,4.05
2023-05-23T21:05:11.651Z,4.00
2023-05-23T21:07:38.898Z,3.70
2023-05-23T21:10:06.429Z,4.07
2023-05-23T21:12:33.086Z,3.83
2023-05-23T21:14:59.877Z,3.78
2023-05-23T21:17:26.701Z,4.00
2023-05-23T21:19:53.516Z,4.00
2023-05-23T21:22:20.151Z,3.80
2023-05-23T21:24:46.895Z,3.65
2023-05-23T21:27:13.631Z,3.63
2023-05-23T21:29:40.605Z,3.58
2023-05-23T21:32:07.482Z,4.20
2023-05-23T21:34:34.170Z,3.95
2023-05-23T21:37:00.937Z,3.95
2023-05-23T21:39:33.278Z,4.00
2023-05-23T21:42:07.517Z,4.20
2023-05-23T21:44:34.231Z,3.88
2023-05-23T21:47:00.910Z,4.13
2023-05-23T21:49:27.809Z,3.95
2023-05-23T21:51:55.450Z,3.72
2023-05-23T21:54:22.089Z,3.95
2023-05-23T21:56:48.921Z,4.10
2023-05-23T21:59:15.699Z,4.57
2023-05-23T22:01:42.511Z,4.10
2023-05-23T22:04:09.299Z,3.80
2023-05-23T22:06:36.683Z,4.30
2023-05-23T22:11:34.079Z,3.90
2023-05-23T22:14:01.533Z,4.32
2023-05-23T22:16:29.262Z,4.53
2023-05-23T22:18:58.239Z,4.10
2023-05-23T22:21:25.930Z,4.22
2023-05-23T22:23:53.547Z,4.35
2023-05-23T22:26:21.933Z,4.00
2023-05-23T22:28:48.800Z,4.00
2023-05-23T22:31:15.568Z,4.70
2023-05-23T22:33:42.893Z,3.70
2023-05-23T22:41:04.985Z,4.28
2023-05-23T22:43:32.315Z,4.78
2023-05-23T22:45:59.003Z,5.00
2023-05-23T22:48:26.015Z,5.28
2023-05-23T22:50:54.877Z,5.00
2023-05-23T22:53:22.761Z,4.43
2023-05-23T22:55:49.977Z,4.30
2023-05-23T22:58:16.697Z,4.20
2023-05-23T23:00:45.420Z,4.43
2023-05-23T23:03:12.698Z,4.32
2023-05-23T23:08:06.285Z,4.60
2023-05-23T23:10:32.976Z,4.60
2023-05-23T23:12:59.588Z,4.10
2023-05-23T23:15:26.315Z,4.47
2023-05-23T23:17:52.998Z,4.35
2023-05-23T23:20:21.716Z,4.90
2023-05-23T23:22:48.383Z,4.22
2023-05-23T23:25:15.534Z,4.07
2023-05-23T23:27:42.210Z,3.95
2023-05-23T23:30:09.348Z,4.28
2023-05-23T23:32:36.536Z,4.13
2023-05-23T23:35:03.505Z,3.95
2023-05-23T23:37:30.216Z,4.15
2023-05-23T23:39:57.284Z,4.40
2023-05-23T23:42:24.011Z,4.38
2023-05-23T23:44:50.677Z,3.95
2023-05-23T23:47:17.327Z,4.28
2023-05-23T23:49:43.976Z,4.00
2023-05-23T23:52:10.632Z,3.97
2023-05-23T23:54:37.247Z,4.38
2023-05-23T23:57:04.169Z,4.47
2023-05-23T23:59:30.831Z,4.47
